Time;durP1;ratioP1;P1;durP2;ratioP2;P2;SDS_P1;SDS_P2;PMS_P1;PMS_P2;Temp;Humidity;BMP_temperature;BMP_pressure;BME280_temperature;BME280_humidity;BME280_pressure;Samples;Min_cycle;Max_cycle;Signal;HPM_P1;HPM_P2
2023/02/19 00:01:10;;;;;;;11.80;8.00;;;7.80;99.90;;;;;;483182;242;28463;-78
2023/02/19 00:03:11;;;;;;;8.10;7.13;;;7.80;99.90;;;;;;481800;247;28420;-77
2023/02/19 00:05:12;;;;;;;8.40;7.30;;;7.90;99.90;;;;;;483938;243;28080;-77
2023/02/19 00:07:14;;;;;;;11.60;8.50;;;7.90;99.90;;;;;;480548;245;28587;-78
2023/02/19 00:09:15;;;;;;;9.57;7.97;;;7.80;99.90;;;;;;474973;250;27947;-78
2023/02/19 00:11:16;;;;;;;11.80;8.00;;;7.90;99.90;;;;;;477518;245;27852;-77
2023/02/19 00:13:17;;;;;;;10.87;8.67;;;7.80;99.90;;;;;;468239;249;27935;-77
2023/02/19 00:15:19;;;;;;;7.90;7.10;;;7.80;99.90;;;;;;488828;242;27970;-77
2023/02/19 00:17:20;;;;;;;7.63;6.53;;;7.70;99.90;;;;;;483789;244;27937;-78
2023/02/19 00:19:21;;;;;;;7.77;6.97;;;7.70;99.90;;;;;;470373;252;28115;-76
2023/02/19 00:21:22;;;;;;;8.40;7.60;;;7.80;99.90;;;;;;479100;247;27922;-76
2023/02/19 00:23:24;;;;;;;10.70;8.03;;;7.80;99.90;;;;;;481156;245;27929;-76
2023/02/19 00:25:25;;;;;;;14.33;8.23;;;7.80;99.90;;;;;;478700;244;27890;-77
2023/02/19 00:27:26;;;;;;;7.90;7.10;;;7.80;99.90;;;;;;477386;249;28047;-77
2023/02/19 00:29:27;;;;;;;7.57;6.77;;;7.80;99.90;;;;;;477858;248;28056;-77
2023/02/19 00:31:29;;;;;;;8.90;7.97;;;7.70;99.90;;;;;;477748;248;27817;-77
2023/02/19 00:33:31;;;;;;;11.67;8.80;;;7.80;99.90;;;;;;479216;245;28394;-77
2023/02/19 00:35:32;;;;;;;10.80;8.03;;;7.80;99.90;;;;;;481582;244;27936;-77
2023/02/19 00:37:33;;;;;;;10.50;7.67;;;7.80;99.90;;;;;;477245;245;28654;-78
2023/02/19 00:39:34;;;;;;;9.43;7.90;;;7.80;99.90;;;;;;475200;250;28012;-76
2023/02/19 00:41:36;;;;;;;9.90;7.00;;;7.80;99.90;;;;;;472853;251;27677;-77
2023/02/19 00:43:37;;;;;;;10.23;7.63;;;7.90;99.90;;;;;;481348;244;27907;-77
2023/02/19 00:45:38;;;;;;;10.43;7.67;;;7.90;99.90;;;;;;467621;249;27910;-77
2023/02/19 00:47:39;;;;;;;9.50;8.20;;;7.80;99.90;;;;;;485265;243;27978;-78
2023/02/19 00:49:41;;;;;;;7.37;6.67;;;7.80;99.90;;;;;;485453;241;27963;-77
2023/02/19 00:51:42;;;;;;;8.97;8.00;;;7.90;99.90;;;;;;484669;241;28336;-77
2023/02/19 00:53:43;;;;;;;9.63;7.70;;;7.80;99.90;;;;;;483974;243;28001;-77
2023/02/19 00:55:45;;;;;;;8.90;7.97;;;7.90;99.90;;;;;;480936;246;27901;-78
2023/02/19 00:57:46;;;;;;;8.40;6.10;;;7.90;99.90;;;;;;482040;246;27773;-78
2023/02/19 00:59:47;;;;;;;7.77;6.97;;;7.80;99.90;;;;;;479867;245;27971;-77
2023/02/19 01:01:50;;;;;;;9.10;7.33;;;7.80;99.90;;;;;;468610;247;27978;-77
2023/02/19 01:03:50;;;;;;;7.40;5.97;;;7.80;99.90;;;;;;483115;245;27617;-77
2023/02/19 01:05:51;;;;;;;8.70;7.80;;;7.80;99.90;;;;;;476393;245;27873;-77
2023/02/19 01:07:52;;;;;;;7.13;6.43;;;7.80;99.90;;;;;;474745;249;28165;-78
2023/02/19 01:09:53;;;;;;;8.00;6.20;;;7.80;99.90;;;;;;476505;245;28088;-78
2023/02/19 01:11:56;;;;;;;7.03;6.10;;;7.80;99.90;;;;;;479912;244;27929;-77
2023/02/19 01:13:57;;;;;;;8.00;7.17;;;7.80;99.90;;;;;;478251;244;28000;-77
2023/02/19 01:15:58;;;;;;;8.60;7.00;;;7.80;99.90;;;;;;477323;243;27975;-78
2023/02/19 01:18:00;;;;;;;11.83;7.83;;;7.80;99.90;;;;;;476532;245;28700;-78
2023/02/19 01:20:01;;;;;;;8.93;7.83;;;7.80;99.90;;;;;;483098;243;28445;-77
2023/02/19 01:22:02;;;;;;;8.87;7.50;;;7.80;99.90;;;;;;487140;243;28338;-78
2023/02/19 01:24:03;;;;;;;9.67;7.87;;;7.80;99.90;;;;;;477941;244;28119;-77
2023/02/19 01:26:05;;;;;;;6.97;6.27;;;7.80;99.90;;;;;;477731;249;27517;-77
2023/02/19 01:28:06;;;;;;;6.83;6.10;;;7.80;99.90;;;;;;477773;249;27913;-78
2023/02/19 01:30:07;;;;;;;7.60;6.80;;;7.80;99.90;;;;;;477709;249;27953;-78
2023/02/19 01:32:08;;;;;;;7.80;6.50;;;7.80;99.90;;;;;;477857;244;27919;-77
2023/02/19 01:34:10;;;;;;;6.83;6.23;;;7.80;99.90;;;;;;477319;245;27852;-77
2023/02/19 01:36:11;;;;;;;7.53;6.53;;;7.70;99.90;;;;;;477656;249;27821;-77
2023/02/19 01:38:12;;;;;;;6.67;5.97;;;7.80;99.90;;;;;;477845;248;27712;-77
2023/02/19 01:40:13;;;;;;;5.80;5.27;;;7.70;99.90;;;;;;477781;248;28003;-77
2023/02/19 01:42:15;;;;;;;7.43;5.90;;;7.80;99.90;;;;;;477775;248;27966;-77
2023/02/19 01:44:17;;;;;;;6.37;5.50;;;7.80;99.90;;;;;;477522;244;27857;-77
2023/02/19 01:46:17;;;;;;;5.70;5.20;;;7.80;99.90;;;;;;483049;241;28014;-77
2023/02/19 01:48:18;;;;;;;5.97;5.37;;;7.80;99.90;;;;;;483748;245;27900;-77
2023/02/19 01:50:20;;;;;;;5.73;5.23;;;7.80;99.90;;;;;;483958;243;27702;-78
2023/02/19 01:52:21;;;;;;;6.20;5.60;;;7.80;99.90;;;;;;478339;246;27745;-78
2023/02/19 01:54:22;;;;;;;6.97;6.27;;;7.80;99.90;;;;;;478209;246;27517;-77
2023/02/19 01:56:23;;;;;;;5.57;5.07;;;7.70;99.90;;;;;;477776;245;28486;-77
2023/02/19 01:58:25;;;;;;;6.60;6.00;;;7.70;99.90;;;;;;472495;249;27993;-78
2023/02/19 02:00:26;;;;;;;5.43;4.93;;;7.70;99.90;;;;;;478616;247;28447;-78
2023/02/19 02:02:27;;;;;;;7.17;5.77;;;7.80;99.90;;;;;;481914;246;28425;-77
2023/02/19 02:04:28;;;;;;;5.50;5.00;;;7.80;99.90;;;;;;479982;244;28173;-77
2023/02/19 02:06:30;;;;;;;7.10;6.40;;;7.80;99.90;;;;;;471096;248;28059;-77
2023/02/19 02:10:51;;;;;;;6.40;5.80;;;7.80;99.90;;;;;;484271;244;28262;-75
2023/02/19 02:12:52;;;;;;;7.77;5.20;;;7.80;99.90;;;;;;469176;253;28602;-76
2023/02/19 02:14:53;;;;;;;6.70;6.10;;;7.80;99.90;;;;;;471136;251;28070;-78
2023/02/19 02:16:54;;;;;;;7.20;6.37;;;7.80;99.90;;;;;;470503;249;27944;-78
2023/02/19 02:18:56;;;;;;;6.50;5.73;;;7.80;99.90;;;;;;476916;245;27715;-78
2023/02/19 02:20:57;;;;;;;7.17;6.47;;;7.80;99.90;;;;;;473747;249;27937;-77
2023/02/19 02:22:58;;;;;;;6.30;5.57;;;7.80;99.90;;;;;;477911;248;27816;-77
2023/02/19 02:24:59;;;;;;;5.77;5.27;;;7.70;99.90;;;;;;473660;248;27847;-77
2023/02/19 02:27:01;;;;;;;5.50;5.00;;;7.80;99.90;;;;;;474814;245;27774;-77
2023/02/19 02:29:02;;;;;;;6.43;5.40;;;7.80;99.90;;;;;;478358;244;27927;-77
2023/02/19 02:31:03;;;;;;;5.43;4.93;;;7.80;99.90;;;;;;477049;249;28125;-77
2023/02/19 02:33:04;;;;;;;6.40;5.77;;;7.80;99.90;;;;;;474198;249;27871;-77
2023/02/19 02:35:06;;;;;;;6.17;5.57;;;7.90;99.90;;;;;;472337;252;28030;-77
2023/02/19 02:37:07;;;;;;;6.97;6.27;;;7.90;99.90;;;;;;477845;245;28117;-77
2023/02/19 02:39:09;;;;;;;6.00;5.40;;;7.90;99.90;;;;;;480233;245;27705;-77
2023/02/19 02:41:09;;;;;;;5.57;5.07;;;7.90;99.90;;;;;;477144;249;28023;-77
2023/02/19 02:43:11;;;;;;;5.93;5.33;;;7.90;99.90;;;;;;477286;249;28643;-77
2023/02/19 02:47:41;;;;;;;7.20;5.80;;;7.90;99.90;;;;;;485210;245;28031;-75
2023/02/19 02:50:03;;;;;;;7.57;6.80;;;7.80;99.90;;;;;;485440;245;28096;-73
2023/02/19 02:51:44;;;;;;;6.50;5.77;;;7.80;99.90;;;;;;478534;245;27712;-77
2023/02/19 02:56:04;;;;;;;6.67;6.07;;;7.80;99.90;;;;;;476734;244;28495;-76
2023/02/19 02:58:06;;;;;;;6.80;6.20;;;7.80;99.90;;;;;;477999;245;30023;-77
2023/02/19 03:00:07;;;;;;;6.63;6.03;;;7.80;99.90;;;;;;464771;254;28148;-77
2023/02/19 03:02:13;;;;;;;8.03;7.23;;;7.80;99.90;;;;;;468923;253;28578;-78
2023/02/19 03:04:13;;;;;;;8.97;7.60;;;7.70;99.90;;;;;;478985;244;28131;-73
2023/02/19 03:06:14;;;;;;;6.70;6.00;;;7.80;99.90;;;;;;477063;244;27809;-77
2023/02/19 03:08:15;;;;;;;6.53;5.83;;;7.80;99.90;;;;;;471298;248;27577;-78
2023/02/19 03:10:16;;;;;;;6.30;5.70;;;7.80;99.90;;;;;;481664;242;28075;-78
2023/02/19 03:19:19;;;;;;;7.50;6.40;;;7.80;99.90;;;;;;483409;244;29116;-75
2023/02/19 03:21:21;;;;;;;7.50;6.70;;;7.80;99.90;;;;;;478788;244;27690;-76
2023/02/19 03:26:02;;;;;;;7.60;6.47;;;7.80;99.90;;;;;;477062;246;28089;-78
2023/02/19 03:27:43;;;;;;;6.60;6.00;;;7.80;99.90;;;;;;477374;244;27713;-77
2023/02/19 03:29:44;;;;;;;7.63;6.70;;;7.80;99.90;;;;;;486710;244;27716;-74
2023/02/19 03:31:45;;;;;;;7.07;6.37;;;7.80;99.90;;;;;;487235;244;27918;-78
2023/02/19 03:33:46;;;;;;;7.60;6.70;;;7.80;99.90;;;;;;486209;244;27853;-78
2023/02/19 03:35:48;;;;;;;6.40;5.80;;;7.90;99.90;;;;;;477841;248;28444;-78
2023/02/19 03:37:49;;;;;;;6.50;5.90;;;7.90;99.90;;;;;;477392;245;28360;-77
2023/02/19 03:39:50;;;;;;;7.03;6.33;;;7.90;99.90;;;;;;479947;244;27828;-78
2023/02/19 03:41:51;;;;;;;6.97;6.33;;;7.90;99.90;;;;;;477383;244;27641;-77
2023/02/19 03:43:53;;;;;;;8.13;7.10;;;7.90;99.90;;;;;;477777;244;27942;-78
2023/02/19 03:45:54;;;;;;;6.00;5.40;;;7.80;99.90;;;;;;481650;245;28073;-77
2023/02/19 03:47:55;;;;;;;6.97;6.03;;;7.90;99.90;;;;;;467099;248;28386;-78
2023/02/19 03:49:57;;;;;;;6.83;6.23;;;7.90;99.90;;;;;;486241;241;27899;-73
2023/02/19 03:51:59;;;;;;;7.23;6.53;;;7.90;99.90;;;;;;484288;241;27818;-74
2023/02/19 03:54:00;;;;;;;7.53;6.17;;;7.90;99.90;;;;;;474741;245;28191;-74
2023/02/19 03:56:01;;;;;;;7.20;6.50;;;7.90;99.90;;;;;;476387;245;27959;-78
2023/02/19 03:58:02;;;;;;;5.97;5.43;;;7.90;99.90;;;;;;477165;245;28581;-77
2023/02/19 04:00:04;;;;;;;7.53;6.83;;;7.90;99.90;;;;;;472997;246;28248;-78
2023/02/19 04:02:05;;;;;;;6.43;5.83;;;7.90;99.90;;;;;;478512;246;28414;-73
2023/02/19 04:04:07;;;;;;;7.20;6.50;;;7.90;99.90;;;;;;482991;241;28517;-78
2023/02/19 04:06:08;;;;;;;6.00;5.40;;;7.90;99.90;;;;;;482143;242;28389;-78
2023/02/19 04:08:09;;;;;;;6.60;6.00;;;7.90;99.90;;;;;;480261;242;27632;-77
2023/02/19 04:10:10;;;;;;;6.80;6.10;;;7.90;99.90;;;;;;481951;245;28053;-77
2023/02/19 04:12:12;;;;;;;5.87;5.33;;;7.90;99.90;;;;;;482539;246;27896;-77
2023/02/19 04:14:13;;;;;;;6.00;5.40;;;7.90;99.90;;;;;;482086;242;27954;-78
2023/02/19 04:16:14;;;;;;;5.50;4.97;;;7.90;99.90;;;;;;482976;241;27684;-77
2023/02/19 04:18:15;;;;;;;6.70;5.80;;;7.90;99.90;;;;;;484285;242;28093;-78
2023/02/19 04:20:17;;;;;;;5.83;5.30;;;7.90;99.90;;;;;;485558;244;28449;-77
2023/02/19 04:22:18;;;;;;;6.27;5.53;;;8.00;99.90;;;;;;477227;249;28661;-78
2023/02/19 04:24:22;;;;;;;6.40;5.63;;;8.00;99.90;;;;;;471795;249;28581;-78
2023/02/19 04:26:23;;;;;;;8.03;5.87;;;7.90;99.90;;;;;;480410;245;27974;-74
2023/02/19 04:28:26;;;;;;;5.77;5.27;;;8.00;99.90;;;;;;484614;244;27747;-78
2023/02/19 04:30:27;;;;;;;6.30;5.80;;;7.90;99.90;;;;;;478494;245;27585;-74
2023/02/19 04:32:28;;;;;;;6.23;5.63;;;7.90;99.90;;;;;;476044;245;28767;-77
2023/02/19 04:34:29;;;;;;;6.23;5.73;;;7.90;99.90;;;;;;466300;254;28497;-81
2023/02/19 04:36:31;;;;;;;5.70;5.20;;;7.90;99.90;;;;;;471104;244;28341;-79
2023/02/19 04:38:32;;;;;;;6.53;5.90;;;8.00;99.90;;;;;;478134;244;28521;-77
2023/02/19 04:40:33;;;;;;;6.27;5.67;;;7.90;99.90;;;;;;483035;246;28479;-78
2023/02/19 04:42:35;;;;;;;5.47;5.00;;;7.90;99.90;;;;;;484304;242;27844;-74
2023/02/19 04:44:36;;;;;;;5.80;4.93;;;8.00;99.90;;;;;;485178;244;27934;-77
2023/02/19 04:46:37;;;;;;;6.73;5.63;;;8.00;99.90;;;;;;485196;244;27831;-77
2023/02/19 04:48:38;;;;;;;6.17;5.57;;;8.00;99.90;;;;;;485231;241;27971;-77
2023/02/19 04:50:40;;;;;;;5.50;4.27;;;7.90;99.90;;;;;;477007;247;27725;-77
2023/02/19 04:52:41;;;;;;;5.80;5.30;;;8.00;99.90;;;;;;480430;242;27864;-78
2023/02/19 04:54:43;;;;;;;6.67;5.00;;;8.00;99.90;;;;;;485143;244;27896;-75
2023/02/19 04:56:44;;;;;;;6.00;5.50;;;8.00;99.90;;;;;;485210;245;28019;-74
2023/02/19 04:58:45;;;;;;;5.83;5.23;;;7.90;99.90;;;;;;485074;241;27829;-76
2023/02/19 05:00:46;;;;;;;5.00;4.60;;;7.90;99.90;;;;;;480420;245;28397;-77
2023/02/19 05:02:48;;;;;;;5.83;5.23;;;8.00;99.90;;;;;;485479;244;28358;-78
2023/02/19 05:04:49;;;;;;;5.70;5.20;;;7.90;99.90;;;;;;477060;245;28472;-78
2023/02/19 05:06:50;;;;;;;5.50;5.00;;;7.90;99.90;;;;;;485834;244;28413;-78
2023/02/19 05:08:51;;;;;;;7.10;6.10;;;7.90;99.90;;;;;;476493;244;27969;-77
2023/02/19 05:10:53;;;;;;;6.70;6.10;;;8.00;99.90;;;;;;473698;249;27839;-77
2023/02/19 05:12:54;;;;;;;6.07;5.53;;;8.00;99.90;;;;;;477846;245;27862;-77
2023/02/19 05:14:55;;;;;;;5.70;5.13;;;7.90;99.90;;;;;;477749;249;28462;-77
2023/02/19 05:16:56;;;;;;;6.53;5.80;;;7.90;99.90;;;;;;477610;244;28222;-77
2023/02/19 05:18:58;;;;;;;6.03;5.30;;;7.90;99.90;;;;;;485383;244;27942;-77
2023/02/19 05:20:59;;;;;;;6.87;6.17;;;7.90;99.90;;;;;;480744;244;28094;-77
2023/02/19 05:23:00;;;;;;;5.57;5.07;;;7.90;99.90;;;;;;478711;245;28003;-77
2023/02/19 05:25:01;;;;;;;5.60;5.10;;;7.90;99.90;;;;;;476816;244;27954;-77
2023/02/19 05:27:03;;;;;;;7.33;5.83;;;7.90;99.90;;;;;;475445;244;27924;-77
2023/02/19 05:29:04;;;;;;;6.37;5.77;;;8.00;99.90;;;;;;485958;244;28051;-77
2023/02/19 05:31:05;;;;;;;5.97;5.47;;;7.90;99.90;;;;;;480068;244;27882;-77
2023/02/19 05:33:07;;;;;;;5.73;5.23;;;8.00;99.90;;;;;;477755;249;27582;-77
2023/02/19 05:35:08;;;;;;;6.30;5.70;;;8.00;99.90;;;;;;477472;245;28001;-77
2023/02/19 05:37:09;;;;;;;6.50;5.37;;;7.90;99.90;;;;;;475603;244;28018;-78
2023/02/19 05:39:10;;;;;;;6.20;5.07;;;7.90;99.90;;;;;;487408;244;27906;-77
2023/02/19 05:41:11;;;;;;;5.00;4.53;;;8.00;99.90;;;;;;477636;244;27717;-77
2023/02/19 05:43:13;;;;;;;6.50;5.90;;;7.90;99.90;;;;;;475824;248;28096;-77
2023/02/19 05:45:14;;;;;;;5.30;4.80;;;7.90;99.90;;;;;;480714;246;27335;-78
2023/02/19 05:47:15;;;;;;;6.63;5.30;;;7.90;99.90;;;;;;480593;244;28414;-77
2023/02/19 05:49:16;;;;;;;6.87;5.77;;;7.90;99.90;;;;;;477714;249;28630;-77
2023/02/19 05:51:20;;;;;;;4.83;4.43;;;7.90;99.90;;;;;;477292;249;28344;-77
2023/02/19 05:53:21;;;;;;;6.20;5.10;;;7.90;99.90;;;;;;476944;248;28482;-77
2023/02/19 05:55:22;;;;;;;5.83;5.33;;;7.90;99.90;;;;;;479984;243;28497;-77
2023/02/19 05:57:23;;;;;;;6.77;6.07;;;7.90;99.90;;;;;;481149;243;27859;-77
2023/02/19 05:59:25;;;;;;;5.87;5.27;;;7.90;99.90;;;;;;477714;244;27818;-77
2023/02/19 06:01:26;;;;;;;6.20;5.60;;;7.90;99.90;;;;;;477563;249;27870;-77
2023/02/19 06:03:27;;;;;;;5.67;4.90;;;7.90;99.90;;;;;;477526;248;28006;-77
2023/02/19 06:05:29;;;;;;;4.70;4.30;;;7.90;99.90;;;;;;477385;247;27496;-77
2023/02/19 06:07:30;;;;;;;5.50;5.00;;;8.00;99.90;;;;;;477131;246;28320;-75
2023/02/19 06:09:32;;;;;;;6.17;5.57;;;7.90;99.90;;;;;;474892;245;28561;-77
2023/02/19 06:11:33;;;;;;;6.23;5.63;;;7.90;99.90;;;;;;475765;249;27780;-77
2023/02/19 06:13:34;;;;;;;6.10;5.30;;;7.90;99.90;;;;;;483513;243;27875;-77
2023/02/19 06:15:37;;;;;;;7.97;5.87;;;7.90;99.90;;;;;;473760;245;27933;-77
2023/02/19 06:17:39;;;;;;;7.33;5.53;;;7.90;99.90;;;;;;477755;249;27994;-75
2023/02/19 06:19:40;;;;;;;7.53;6.40;;;7.80;99.90;;;;;;477734;244;28422;-78
2023/02/19 06:21:42;;;;;;;6.90;6.20;;;7.90;99.90;;;;;;475379;247;28479;-77
2023/02/19 06:23:43;;;;;;;6.27;4.90;;;7.90;99.90;;;;;;486865;243;27840;-77
2023/02/19 06:25:44;;;;;;;7.07;6.37;;;7.90;99.90;;;;;;481916;245;28093;-77
2023/02/19 06:27:45;;;;;;;7.17;6.47;;;7.90;99.90;;;;;;477738;248;27912;-78
2023/02/19 06:29:47;;;;;;;7.53;6.70;;;7.90;99.90;;;;;;475491;244;27976;-78
2023/02/19 06:31:48;;;;;;;6.77;6.00;;;7.90;99.90;;;;;;477392;249;27958;-78
2023/02/19 06:33:53;;;;;;;7.47;6.67;;;7.90;99.90;;;;;;479088;244;27768;-78
2023/02/19 06:35:53;;;;;;;7.50;6.70;;;7.90;99.90;;;;;;475723;247;27940;-75
2023/02/19 06:37:55;;;;;;;6.83;6.23;;;7.90;99.90;;;;;;479983;244;28394;-77
2023/02/19 06:39:56;;;;;;;5.87;5.27;;;7.90;99.90;;;;;;483525;244;28622;-76
2023/02/19 06:41:57;;;;;;;7.23;6.33;;;7.90;99.90;;;;;;483783;244;29117;-78
2023/02/19 06:43:58;;;;;;;7.33;6.03;;;7.90;99.90;;;;;;480632;244;28218;-78
2023/02/19 06:46:00;;;;;;;8.03;7.23;;;7.90;99.90;;;;;;477711;249;28270;-78
2023/02/19 06:48:01;;;;;;;9.13;7.10;;;7.90;99.90;;;;;;474479;249;28018;-78
2023/02/19 06:50:02;;;;;;;7.40;6.43;;;7.80;99.90;;;;;;471360;249;27929;-78
2023/02/19 06:52:03;;;;;;;8.60;6.60;;;7.90;99.90;;;;;;482579;241;28091;-78
2023/02/19 06:54:05;;;;;;;7.30;6.60;;;7.90;99.90;;;;;;482425;242;27947;-78
2023/02/19 06:56:06;;;;;;;9.17;7.10;;;7.90;99.90;;;;;;483192;245;27746;-78
2023/02/19 06:58:07;;;;;;;12.13;7.33;;;7.90;99.90;;;;;;482995;242;28025;-78
2023/02/19 07:00:08;;;;;;;7.93;6.80;;;7.90;99.90;;;;;;477141;245;27870;-78
2023/02/19 07:02:10;;;;;;;9.03;6.97;;;7.90;99.90;;;;;;484151;241;28434;-78
2023/02/19 07:04:11;;;;;;;9.33;7.30;;;7.90;99.90;;;;;;479689;244;27987;-78
2023/02/19 07:06:12;;;;;;;7.50;6.80;;;8.00;99.90;;;;;;478942;242;27916;-78
2023/02/19 07:08:16;;;;;;;8.77;7.67;;;8.00;99.90;;;;;;481104;247;28095;-78
2023/02/19 07:10:15;;;;;;;10.63;6.47;;;8.00;99.90;;;;;;481713;246;28015;-77
2023/02/19 07:12:16;;;;;;;10.70;8.00;;;8.00;99.90;;;;;;483382;241;27938;-78
2023/02/19 07:14:17;;;;;;;8.87;7.70;;;8.00;99.90;;;;;;483864;241;28954;-78
2023/02/19 07:16:18;;;;;;;9.53;7.40;;;7.90;99.90;;;;;;484307;242;28097;-78
2023/02/19 07:18:20;;;;;;;10.67;7.20;;;8.00;99.90;;;;;;476911;246;28051;-77
2023/02/19 07:20:21;;;;;;;9.87;7.60;;;7.90;99.90;;;;;;483063;242;28350;-78
2023/02/19 07:22:22;;;;;;;9.93;6.20;;;8.00;99.90;;;;;;480917;241;28008;-78
2023/02/19 07:24:23;;;;;;;9.93;6.80;;;8.00;99.90;;;;;;472358;248;27932;-78
2023/02/19 07:26:25;;;;;;;7.33;6.43;;;8.00;99.90;;;;;;469472;248;27974;-78
2023/02/19 07:28:26;;;;;;;7.50;5.90;;;8.00;99.90;;;;;;471777;247;27976;-78
2023/02/19 07:30:27;;;;;;;6.50;5.77;;;8.00;99.90;;;;;;474904;249;28102;-77
2023/02/19 07:32:28;;;;;;;8.07;6.33;;;8.00;99.90;;;;;;477104;245;27875;-78
2023/02/19 07:34:30;;;;;;;8.53;7.30;;;8.00;99.90;;;;;;479695;241;27820;-78
2023/02/19 07:36:31;;;;;;;11.57;6.40;;;8.00;99.90;;;;;;480479;246;27921;-80
2023/02/19 07:38:32;;;;;;;6.60;5.90;;;8.00;99.90;;;;;;482160;243;27786;-78
2023/02/19 07:40:34;;;;;;;8.10;6.10;;;8.10;99.90;;;;;;477654;249;27669;-76
2023/02/19 07:42:35;;;;;;;7.80;5.47;;;8.10;99.90;;;;;;475979;249;27991;-78
2023/02/19 07:44:36;;;;;;;8.30;6.70;;;8.00;99.90;;;;;;468142;249;28029;-77
2023/02/19 07:46:37;;;;;;;7.20;5.70;;;8.10;99.90;;;;;;472428;244;27810;-78
2023/02/19 07:48:38;;;;;;;5.97;5.40;;;8.00;99.90;;;;;;484933;242;27682;-78
2023/02/19 07:50:40;;;;;;;7.77;6.63;;;8.10;99.90;;;;;;489438;243;27916;-78
2023/02/19 07:52:41;;;;;;;10.13;6.23;;;8.10;99.90;;;;;;489022;243;27831;-79
2023/02/19 07:54:42;;;;;;;8.20;6.20;;;8.10;99.90;;;;;;480246;241;28331;-78
2023/02/19 07:56:43;;;;;;;6.97;5.40;;;8.10;99.90;;;;;;472046;248;28094;-77
2023/02/19 07:58:45;;;;;;;8.23;6.07;;;8.10;99.90;;;;;;479737;245;27989;-77
2023/02/19 08:00:46;;;;;;;8.67;5.80;;;8.10;99.90;;;;;;479619;243;27709;-78
2023/02/19 08:03:00;;;;;;;10.33;6.07;;;8.10;99.90;;;;;;465893;249;27965;-77
2023/02/19 08:05:02;;;;;;;8.43;6.30;;;8.10;99.90;;;;;;467727;254;28104;-74
2023/02/19 08:07:04;;;;;;;11.27;5.47;;;8.10;99.90;;;;;;482221;243;28770;-78
2023/02/19 08:09:04;;;;;;;7.20;5.90;;;8.20;99.90;;;;;;483052;245;28407;-78
2023/02/19 08:13:25;;;;;;;7.87;5.90;;;8.20;99.90;;;;;;480860;246;27837;-77
2023/02/19 08:15:26;;;;;;;7.90;5.70;;;8.30;99.90;;;;;;481665;246;28424;-76
2023/02/19 08:17:29;;;;;;;6.90;5.10;;;8.30;99.90;;;;;;469079;253;28585;-77
2023/02/19 08:19:30;;;;;;;11.17;5.27;;;8.30;99.90;;;;;;469134;253;28398;-76
2023/02/19 08:21:31;;;;;;;8.10;5.10;;;8.30;99.90;;;;;;475789;245;27944;-77
2023/02/19 08:23:32;;;;;;;5.57;4.03;;;8.40;99.90;;;;;;470102;247;27724;-78
2023/02/19 08:25:33;;;;;;;6.37;5.00;;;8.40;99.90;;;;;;486793;244;27862;-77
2023/02/19 08:27:35;;;;;;;7.80;5.30;;;8.50;99.90;;;;;;467116;249;28054;-77
2023/02/19 08:29:36;;;;;;;6.20;4.40;;;8.40;99.90;;;;;;465967;249;27932;-78
2023/02/19 08:31:37;;;;;;;7.50;5.37;;;8.40;99.90;;;;;;480409;245;27958;-77
2023/02/19 08:33:38;;;;;;;4.00;3.60;;;8.40;99.90;;;;;;467193;248;28040;-78
2023/02/19 08:35:41;;;;;;;7.87;4.30;;;8.40;99.90;;;;;;468214;248;27987;-77
2023/02/19 08:37:42;;;;;;;8.97;4.87;;;8.50;99.90;;;;;;460924;251;28432;-77
2023/02/19 08:39:43;;;;;;;6.27;3.80;;;8.40;99.90;;;;;;468120;249;28500;-77
2023/02/19 08:41:44;;;;;;;6.07;4.17;;;8.40;99.90;;;;;;471734;247;29466;-77
2023/02/19 08:43:45;;;;;;;4.97;3.90;;;8.40;99.90;;;;;;470565;248;28445;-78
2023/02/19 08:45:54;;;;;;;6.57;4.50;;;8.40;99.90;;;;;;477623;247;27898;-78
2023/02/19 08:48:01;;;;;;;5.73;3.97;;;8.50;99.90;;;;;;466915;250;27997;-74
2023/02/19 08:50:03;;;;;;;7.93;5.00;;;8.50;99.90;;;;;;466852;251;28164;-77
2023/02/19 08:52:07;;;;;;;6.83;3.77;;;8.50;99.90;;;;;;472049;246;28347;-78
2023/02/19 08:54:08;;;;;;;7.80;4.60;;;8.50;99.90;;;;;;477394;244;28087;-74
2023/02/19 08:56:10;;;;;;;6.90;4.50;;;8.50;99.90;;;;;;482805;241;28411;-77
2023/02/19 08:58:11;;;;;;;9.07;4.67;;;8.40;99.90;;;;;;470892;247;28680;-77
2023/02/19 09:00:18;;;;;;;8.13;4.53;;;8.40;99.90;;;;;;475222;246;27860;-76
2023/02/19 09:02:19;;;;;;;10.70;5.33;;;8.50;99.90;;;;;;468716;250;27926;-74
2023/02/19 09:04:20;;;;;;;5.33;4.83;;;8.50;99.90;;;;;;479073;243;27901;-75
2023/02/19 09:06:21;;;;;;;6.70;4.70;;;8.60;99.90;;;;;;476706;244;27434;-75
2023/02/19 09:08:23;;;;;;;6.80;4.97;;;8.70;99.90;;;;;;481558;242;27769;-77
2023/02/19 09:10:24;;;;;;;5.07;4.50;;;8.60;99.90;;;;;;482653;242;27924;-77
2023/02/19 09:12:25;;;;;;;10.60;4.80;;;8.70;99.90;;;;;;481434;244;28108;-77
2023/02/19 09:14:28;;;;;;;5.60;4.33;;;8.70;99.90;;;;;;481476;244;28179;-77
2023/02/19 09:16:29;;;;;;;6.67;4.20;;;8.70;99.90;;;;;;474631;245;28016;-73
2023/02/19 09:18:31;;;;;;;8.33;4.47;;;8.80;99.90;;;;;;473592;246;28312;-78
2023/02/19 09:20:32;;;;;;;6.47;4.60;;;8.80;99.90;;;;;;483289;243;28464;-76
2023/02/19 09:22:33;;;;;;;6.17;4.70;;;8.80;99.90;;;;;;484180;235;28286;-74
2023/02/19 09:24:34;;;;;;;7.10;4.20;;;8.80;99.90;;;;;;471413;248;28497;-77
2023/02/19 09:26:36;;;;;;;7.40;5.10;;;8.90;99.90;;;;;;478243;248;28368;-77
2023/02/19 09:28:40;;;;;;;8.65;5.00;;;8.90;99.90;;;;;;472853;248;48020;-77
2023/02/19 09:30:38;;;;;;;9.63;5.93;;;8.90;99.90;;;;;;476599;248;27586;-78
2023/02/19 09:32:39;;;;;;;10.47;5.00;;;8.80;99.90;;;;;;472838;242;28019;-77
2023/02/19 09:34:41;;;;;;;7.80;5.10;;;8.90;99.90;;;;;;465082;253;28055;-77
2023/02/19 09:36:42;;;;;;;11.53;4.97;;;8.90;99.90;;;;;;469434;250;27892;-77
2023/02/19 09:38:43;;;;;;;10.43;5.30;;;8.90;99.90;;;;;;465378;249;27606;-77
2023/02/19 09:42:51;;;;;;;12.97;5.90;;;8.80;99.90;;;;;;489258;238;27839;-78
2023/02/19 09:44:53;;;;;;;10.07;5.50;;;8.80;99.90;;;;;;489841;239;28153;-76
2023/02/19 09:46:54;;;;;;;8.40;5.30;;;8.80;99.90;;;;;;493246;240;27981;-78
2023/02/19 09:48:55;;;;;;;11.07;6.30;;;8.90;99.90;;;;;;493727;239;28418;-77
2023/02/19 09:50:56;;;;;;;11.17;6.43;;;9.00;99.90;;;;;;495543;238;27766;-77
2023/02/19 09:52:58;;;;;;;10.23;5.33;;;9.10;99.90;;;;;;498566;236;27917;-78
2023/02/19 09:54:59;;;;;;;6.57;5.07;;;9.10;99.90;;;;;;491620;236;28228;-77
2023/02/19 09:57:00;;;;;;;10.93;6.40;;;9.10;99.90;;;;;;489684;236;27720;-76
2023/02/19 09:59:01;;;;;;;8.93;6.03;;;9.00;99.90;;;;;;486909;240;27604;-78
2023/02/19 10:01:03;;;;;;;9.13;6.00;;;9.00;99.90;;;;;;493837;237;27775;-78
2023/02/19 10:03:04;;;;;;;10.87;5.40;;;9.00;99.90;;;;;;474118;249;28162;-78
2023/02/19 10:05:05;;;;;;;10.50;5.23;;;9.00;99.90;;;;;;473526;250;27786;-77
2023/02/19 10:07:07;;;;;;;9.43;6.23;;;9.00;99.90;;;;;;473216;250;27729;-77
2023/02/19 10:09:08;;;;;;;7.83;5.50;;;8.90;99.90;;;;;;468607;251;27645;-77
2023/02/19 10:11:09;;;;;;;11.53;6.47;;;8.80;99.90;;;;;;469319;250;27974;-76
2023/02/19 10:13:10;;;;;;;7.23;5.87;;;8.70;99.90;;;;;;468782;250;28011;-77
2023/02/19 10:15:12;;;;;;;11.67;6.60;;;8.80;99.90;;;;;;471103;249;28380;-76
2023/02/19 10:17:13;;;;;;;9.80;5.73;;;8.80;99.90;;;;;;473048;250;28116;-77
2023/02/19 10:19:14;;;;;;;8.97;5.40;;;8.90;99.90;;;;;;469439;246;27755;-77
2023/02/19 10:21:16;;;;;;;8.93;5.57;;;9.00;99.90;;;;;;468500;251;28588;-77
2023/02/19 10:23:17;;;;;;;8.10;5.50;;;9.00;99.90;;;;;;470991;250;28236;-75
2023/02/19 10:25:18;;;;;;;8.73;5.93;;;9.00;99.90;;;;;;469065;247;28459;-79
2023/02/19 10:27:19;;;;;;;9.13;5.43;;;8.90;99.90;;;;;;478611;245;28235;-77
2023/02/19 10:29:21;;;;;;;8.17;4.80;;;8.90;99.90;;;;;;470597;251;28672;-78
2023/02/19 10:31:22;;;;;;;10.60;5.83;;;9.00;99.90;;;;;;469208;249;28520;-78
2023/02/19 10:33:23;;;;;;;8.53;5.27;;;8.90;99.90;;;;;;466227;251;27995;-79
2023/02/19 10:35:24;;;;;;;8.30;4.80;;;8.90;99.90;;;;;;471886;250;28023;-79
2023/02/19 10:37:28;;;;;;;9.10;5.90;;;8.90;99.90;;;;;;470900;251;28011;-79
2023/02/19 10:39:27;;;;;;;9.33;5.23;;;8.80;99.90;;;;;;470377;251;27897;-79
2023/02/19 10:41:28;;;;;;;11.13;4.97;;;8.90;99.90;;;;;;469181;250;28032;-78
2023/02/19 10:43:32;;;;;;;6.43;4.63;;;8.90;99.90;;;;;;466943;251;28448;-77
2023/02/19 10:45:34;;;;;;;7.57;5.17;;;8.90;99.90;;;;;;468983;250;27946;-77
2023/02/19 10:47:35;;;;;;;6.00;4.73;;;8.80;99.90;;;;;;475620;249;28018;-76
2023/02/19 10:49:36;;;;;;;13.87;5.97;;;8.80;99.90;;;;;;464364;249;27975;-77
2023/02/19 10:51:37;;;;;;;8.13;6.03;;;8.70;99.90;;;;;;465037;249;28062;-77
2023/02/19 10:53:39;;;;;;;8.77;5.27;;;8.70;99.90;;;;;;472956;250;28350;-78
2023/02/19 10:55:40;;;;;;;11.17;5.60;;;8.60;99.90;;;;;;464428;255;28148;-78
2023/02/19 10:57:41;;;;;;;7.20;4.90;;;8.70;99.90;;;;;;471915;250;27915;-77
2023/02/19 10:59:42;;;;;;;12.93;5.90;;;8.80;99.90;;;;;;472767;246;27973;-76